createdAt,value
2022-10-29T00:01:57.533Z,11.10
2022-10-29T00:05:00.972Z,11.00
2022-10-29T00:08:04.687Z,11.00
2022-10-29T00:11:09.303Z,11.00
2022-10-29T00:14:13.974Z,11.00
2022-10-29T00:17:17.298Z,11.00
2022-10-29T00:20:20.990Z,10.90
2022-10-29T00:23:24.240Z,10.90
2022-10-29T00:26:29.677Z,10.90
2022-10-29T00:29:34.252Z,10.70
2022-10-29T00:32:37.450Z,10.70
2022-10-29T00:35:40.794Z,10.70
2022-10-29T00:38:44.131Z,10.60
2022-10-29T00:41:47.389Z,10.60
2022-10-29T00:44:52.124Z,10.50
2022-10-29T00:47:55.668Z,10.50
2022-10-29T00:50:59.902Z,10.60
2022-10-29T00:54:05.295Z,10.50
2022-10-29T00:57:10.885Z,10.50
2022-10-29T01:00:17.029Z,10.60
2022-10-29T01:03:20.477Z,10.60
2022-10-29T01:06:25.570Z,10.60
2022-10-29T01:09:28.807Z,10.50
2022-10-29T01:12:48.533Z,10.50
2022-10-29T01:16:01.993Z,10.60
2022-10-29T01:19:14.706Z,10.60
2022-10-29T01:22:25.931Z,10.70
2022-10-29T01:25:51.355Z,10.70
2022-10-29T01:29:11.814Z,10.70
2022-10-29T01:32:20.036Z,10.70
2022-10-29T01:35:30.917Z,10.70
2022-10-29T01:38:39.400Z,10.70
2022-10-29T01:41:52.652Z,10.70
2022-10-29T01:45:04.452Z,10.60
2022-10-29T01:48:12.384Z,10.50
2022-10-29T01:51:21.285Z,10.50
2022-10-29T01:54:24.787Z,10.50
2022-10-29T01:57:31.212Z,10.40
2022-10-29T02:00:45.208Z,10.40
2022-10-29T02:03:58.675Z,10.40
2022-10-29T02:07:09.462Z,10.40
2022-10-29T02:10:19.188Z,10.30
2022-10-29T02:13:29.808Z,10.30
2022-10-29T02:16:34.197Z,10.30
2022-10-29T02:19:38.844Z,10.30
2022-10-29T02:22:42.297Z,10.20
2022-10-29T02:25:45.730Z,10.20
2022-10-29T02:28:49.094Z,10.20
2022-10-29T02:31:52.297Z,10.30
2022-10-29T02:34:56.967Z,10.40
2022-10-29T02:38:00.186Z,10.30
2022-10-29T02:41:03.554Z,10.40
2022-10-29T02:44:06.775Z,10.30
2022-10-29T02:47:10.027Z,10.30
2022-10-29T02:50:14.693Z,10.30
2022-10-29T02:53:17.919Z,10.40
2022-10-29T02:56:21.143Z,10.40
2022-10-29T02:59:24.419Z,10.50
2022-10-29T03:02:27.811Z,10.50
2022-10-29T03:05:32.836Z,10.40
2022-10-29T03:08:36.028Z,10.60
2022-10-29T03:11:39.231Z,10.60
2022-10-29T03:14:42.411Z,10.60
2022-10-29T03:17:45.567Z,10.50
2022-10-29T03:20:50.092Z,10.60
2022-10-29T03:23:53.401Z,10.50
2022-10-29T03:26:56.628Z,10.50
2022-10-29T03:30:00.652Z,10.40
2022-10-29T03:33:03.859Z,10.40
2022-10-29T03:36:09.646Z,10.30
2022-10-29T03:39:12.992Z,10.30
2022-10-29T03:42:16.203Z,10.30
2022-10-29T03:45:19.420Z,10.20
2022-10-29T03:48:23.183Z,10.20
2022-10-29T03:51:27.820Z,10.20
2022-10-29T03:54:31.044Z,10.20
2022-10-29T03:57:34.278Z,10.30
2022-10-29T04:00:37.539Z,10.30
2022-10-29T04:03:45.179Z,10.30
2022-10-29T04:06:50.087Z,10.20
2022-10-29T04:09:53.231Z,10.30
2022-10-29T04:12:56.797Z,10.30
2022-10-29T04:16:00.293Z,10.30
2022-10-29T04:19:04.303Z,10.30
2022-10-29T04:29:00.622Z,10.20
2022-10-29T04:32:04.250Z,10.10
2022-10-29T04:35:08.394Z,10.10
2022-10-29T04:38:14.116Z,10.10
2022-10-29T04:41:17.336Z,10.10
2022-10-29T04:44:21.751Z,10.10
2022-10-29T04:47:24.916Z,10.10
2022-10-29T04:50:28.326Z,10.10
2022-10-29T04:53:32.933Z,10.10
2022-10-29T04:56:36.242Z,10.10
2022-10-29T04:59:39.566Z,10.10
2022-10-29T05:02:42.796Z,10.20
2022-10-29T05:05:46.467Z,10.20
2022-10-29T05:08:51.061Z,10.20
2022-10-29T05:11:54.292Z,10.20
2022-10-29T05:14:57.488Z,10.20
2022-10-29T05:18:00.924Z,10.30
2022-10-29T05:21:04.556Z,10.30
2022-10-29T05:24:09.703Z,10.40
2022-10-29T05:27:12.983Z,10.40
2022-10-29T05:30:16.297Z,10.50
2022-10-29T05:33:21.020Z,10.50
2022-10-29T05:36:24.325Z,10.60
2022-10-29T05:39:29.028Z,10.70
2022-10-29T05:42:32.329Z,10.80
2022-10-29T05:45:35.886Z,10.80
2022-10-29T05:48:39.128Z,10.90
2022-10-29T05:51:43.075Z,11.00
2022-10-29T05:54:47.800Z,11.00
2022-10-29T05:57:51.071Z,11.10
2022-10-29T06:00:54.367Z,11.10
2022-10-29T06:04:01.300Z,11.10
2022-10-29T06:07:04.697Z,11.20
2022-10-29T06:10:10.230Z,11.30
2022-10-29T06:13:14.183Z,11.40
2022-10-29T06:16:17.441Z,11.40
2022-10-29T06:19:20.727Z,11.40
2022-10-29T06:22:23.994Z,11.50
2022-10-29T06:25:29.205Z,11.50
2022-10-29T06:28:34.856Z,11.60
2022-10-29T06:31:38.779Z,11.60
2022-10-29T06:34:42.001Z,11.70
2022-10-29T06:37:45.349Z,11.70
2022-10-29T06:40:54.973Z,11.80
2022-10-29T06:43:58.284Z,11.80
2022-10-29T06:47:01.650Z,11.90
2022-10-29T06:50:05.304Z,11.90
2022-10-29T06:53:12.303Z,12.10
2022-10-29T06:56:16.939Z,12.10
2022-10-29T06:59:20.354Z,12.10
2022-10-29T07:02:24.420Z,12.10
2022-10-29T07:05:27.882Z,12.20
2022-10-29T07:08:31.280Z,12.30
2022-10-29T07:11:35.940Z,12.30
2022-10-29T07:14:39.354Z,12.40
2022-10-29T07:17:43.146Z,12.30
2022-10-29T07:20:47.022Z,12.40
2022-10-29T07:23:50.392Z,12.40
2022-10-29T07:26:55.182Z,12.40
2022-10-29T07:29:58.432Z,12.40
2022-10-29T07:33:01.760Z,12.40
2022-10-29T07:36:05.448Z,12.40
2022-10-29T07:39:08.881Z,12.50
2022-10-29T07:42:13.805Z,12.60
2022-10-29T07:45:17.607Z,12.70
2022-10-29T07:48:22.266Z,12.90
2022-10-29T07:51:25.625Z,13.10
2022-10-29T07:54:29.141Z,13.30
2022-10-29T07:57:35.107Z,13.40
2022-10-29T08:00:40.421Z,13.60
2022-10-29T08:03:44.028Z,13.70
2022-10-29T08:06:47.491Z,13.90
2022-10-29T08:09:50.756Z,14.20
2022-10-29T08:12:57.608Z,14.30
2022-10-29T08:16:01.343Z,14.30
2022-10-29T08:19:04.626Z,14.30
2022-10-29T08:22:08.483Z,14.40
2022-10-29T08:25:12.242Z,14.40
2022-10-29T08:28:17.265Z,14.60
2022-10-29T08:31:20.587Z,14.70
2022-10-29T08:34:23.855Z,14.80
2022-10-29T08:37:27.133Z,15.10
2022-10-29T08:40:32.832Z,15.50
2022-10-29T08:44:14.451Z,15.70
2022-10-29T08:47:20.785Z,16.00
2022-10-29T08:50:29.077Z,16.00
2022-10-29T08:53:38.465Z,16.10
2022-10-29T08:56:48.815Z,16.10
2022-10-29T09:00:05.969Z,16.00
2022-10-29T09:03:12.308Z,16.20
2022-10-29T09:06:20.185Z,16.40
2022-10-29T09:09:32.372Z,16.50
2022-10-29T09:13:02.756Z,16.60
2022-10-29T09:16:32.227Z,16.70
2022-10-29T09:19:48.804Z,16.70
2022-10-29T09:23:03.474Z,16.90
2022-10-29T09:26:12.695Z,16.90
2022-10-29T09:29:34.739Z,17.00
2022-10-29T09:32:44.016Z,17.10
2022-10-29T09:35:49.863Z,17.20
2022-10-29T09:38:58.514Z,17.20
2022-10-29T09:42:03.543Z,17.30
2022-10-29T09:45:10.189Z,17.40
2022-10-29T09:48:21.297Z,17.40
2022-10-29T09:51:32.286Z,17.50
2022-10-29T09:54:36.036Z,17.50
2022-10-29T09:57:41.256Z,17.60
2022-10-29T10:00:44.545Z,17.70
2022-10-29T10:03:56.222Z,17.60
2022-10-29T10:07:05.292Z,17.70
2022-10-29T10:10:20.679Z,17.80
2022-10-29T10:13:27.372Z,17.90
2022-10-29T10:16:33.948Z,18.00
2022-10-29T10:19:44.762Z,18.20
2022-10-29T10:22:48.613Z,18.60
2022-10-29T10:25:53.195Z,18.90
2022-10-29T10:29:07.531Z,19.50
2022-10-29T10:32:15.813Z,20.10
2022-10-29T10:35:30.220Z,20.80
2022-10-29T10:38:40.708Z,20.90
2022-10-29T10:41:45.262Z,20.50
2022-10-29T10:44:52.276Z,20.60
2022-10-29T10:47:59.170Z,21.00
2022-10-29T10:51:35.026Z,20.60
2022-10-29T10:54:42.182Z,20.00
2022-10-29T10:57:55.616Z,19.70
2022-10-29T11:01:04.887Z,19.40
2022-10-29T11:04:16.920Z,19.30
2022-10-29T11:07:22.921Z,19.60
2022-10-29T11:10:35.572Z,20.00
2022-10-29T11:13:42.034Z,20.10
2022-10-29T11:16:49.662Z,20.20
2022-10-29T11:19:56.275Z,19.60
2022-10-29T11:23:15.468Z,19.30
2022-10-29T11:26:23.406Z,19.20
2022-10-29T11:29:36.412Z,20.10
2022-10-29T11:32:58.807Z,20.40
2022-10-29T11:36:13.406Z,20.70
2022-10-29T11:39:25.495Z,20.60
2022-10-29T11:42:28.794Z,19.90
2022-10-29T11:45:43.228Z,19.50
2022-10-29T11:48:56.135Z,19.20
2022-10-29T11:52:10.382Z,19.00
2022-10-29T11:55:24.587Z,18.90
2022-10-29T11:58:38.093Z,19.00
2022-10-29T12:01:49.694Z,18.80
2022-10-29T12:05:01.080Z,18.80
2022-10-29T12:08:31.073Z,18.80
2022-10-29T12:11:43.206Z,19.20
2022-10-29T12:14:50.933Z,19.50
2022-10-29T12:18:03.116Z,19.50
2022-10-29T12:21:14.115Z,19.60
2022-10-29T12:24:27.482Z,19.50
2022-10-29T12:27:41.217Z,19.40
2022-10-29T12:30:55.423Z,19.30
2022-10-29T12:34:06.575Z,19.40
2022-10-29T12:37:14.895Z,19.40
2022-10-29T12:40:23.618Z,19.40
2022-10-29T12:43:30.765Z,19.40
2022-10-29T12:46:39.096Z,19.20
2022-10-29T12:49:55.020Z,19.40
2022-10-29T12:53:07.926Z,19.60
2022-10-29T12:56:16.357Z,19.70
2022-10-29T12:59:34.544Z,19.70
2022-10-29T13:02:47.562Z,19.60
2022-10-29T13:05:51.168Z,19.60
2022-10-29T13:08:57.361Z,19.40
2022-10-29T13:12:03.538Z,19.20
2022-10-29T13:15:15.517Z,19.20
2022-10-29T13:18:24.757Z,19.10
2022-10-29T13:21:57.090Z,19.30
2022-10-29T13:25:49.799Z,19.50
2022-10-29T13:28:53.793Z,19.70
2022-10-29T13:32:04.871Z,19.60
2022-10-29T13:35:39.963Z,19.60
2022-10-29T13:39:04.620Z,19.50
2022-10-29T13:42:13.173Z,19.40
2022-10-29T13:45:16.883Z,19.60
2022-10-29T13:48:27.517Z,19.50
2022-10-29T13:51:39.999Z,19.40
2022-10-29T13:54:47.938Z,19.40
2022-10-29T13:58:01.373Z,19.30
2022-10-29T14:01:10.482Z,19.10
2022-10-29T14:04:25.046Z,18.80
2022-10-29T14:07:34.958Z,18.60
2022-10-29T14:10:46.846Z,18.50
2022-10-29T14:13:54.128Z,18.40
2022-10-29T14:17:12.486Z,18.40
2022-10-29T14:20:26.177Z,18.20
2022-10-29T14:23:31.263Z,18.20
2022-10-29T14:26:36.461Z,18.20
2022-10-29T14:29:39.992Z,18.20
2022-10-29T14:32:46.961Z,18.00
2022-10-29T14:35:53.034Z,18.00
2022-10-29T14:38:59.709Z,17.90
2022-10-29T14:42:03.372Z,17.70
2022-10-29T14:45:17.379Z,17.50
2022-10-29T14:48:21.072Z,17.50
2022-10-29T14:51:26.550Z,17.40
2022-10-29T14:54:33.335Z,17.20
2022-10-29T14:57:41.752Z,17.10
2022-10-29T15:00:55.207Z,17.10
2022-10-29T15:04:00.624Z,16.90
2022-10-29T15:07:30.483Z,16.80
2022-10-29T15:10:34.024Z,16.70
2022-10-29T15:13:38.372Z,16.60
2022-10-29T15:16:42.535Z,16.50
2022-10-29T15:19:48.960Z,16.50
2022-10-29T15:22:57.822Z,16.40
2022-10-29T15:26:05.013Z,16.30
2022-10-29T15:29:11.884Z,16.30
2022-10-29T15:32:17.546Z,16.30
2022-10-29T15:35:23.711Z,16.20
2022-10-29T15:39:08.887Z,16.10
2022-10-29T15:42:21.963Z,15.90
2022-10-29T15:45:27.404Z,15.80
2022-10-29T15:48:37.013Z,15.70
2022-10-29T15:51:40.594Z,15.70
2022-10-29T15:54:46.047Z,15.70
2022-10-29T15:57:51.933Z,15.60
2022-10-29T16:00:55.530Z,15.50
2022-10-29T16:03:58.905Z,15.50
2022-10-29T16:07:02.173Z,15.40
2022-10-29T16:10:07.925Z,15.50
2022-10-29T16:13:13.221Z,15.40
2022-10-29T16:16:19.413Z,15.50
2022-10-29T16:19:22.675Z,15.50
2022-10-29T16:22:29.131Z,15.40
2022-10-29T16:25:33.905Z,15.30
2022-10-29T16:28:37.239Z,15.30
2022-10-29T16:31:40.719Z,15.30
2022-10-29T16:34:44.620Z,15.30
2022-10-29T16:37:48.085Z,15.20
2022-10-29T16:40:52.767Z,15.20
2022-10-29T16:43:56.055Z,15.30
2022-10-29T16:47:00.624Z,15.30
2022-10-29T16:50:04.591Z,15.20
2022-10-29T16:53:10.216Z,15.20
2022-10-29T16:56:14.981Z,15.20
2022-10-29T16:59:18.317Z,15.10
2022-10-29T17:02:21.750Z,15.20
2022-10-29T17:05:25.084Z,15.20
2022-10-29T17:08:32.795Z,15.20
2022-10-29T17:11:37.375Z,15.20
2022-10-29T17:14:40.888Z,15.20
2022-10-29T17:17:46.412Z,15.20
2022-10-29T17:20:57.264Z,15.20
2022-10-29T17:24:06.713Z,15.10
2022-10-29T17:27:14.239Z,15.10
2022-10-29T17:30:17.811Z,15.10
2022-10-29T17:33:21.380Z,15.00
2022-10-29T17:36:24.619Z,15.00
2022-10-29T17:39:28.350Z,15.00
2022-10-29T17:42:32.949Z,15.00
2022-10-29T17:45:37.101Z,15.00
2022-10-29T17:48:42.601Z,15.00
2022-10-29T17:51:46.264Z,15.10
2022-10-29T17:54:49.602Z,15.10
2022-10-29T17:57:55.047Z,15.10
2022-10-29T18:01:05.664Z,15.00
2022-10-29T18:04:09.065Z,15.00
2022-10-29T18:07:12.455Z,15.10
2022-10-29T18:10:17.261Z,15.00
2022-10-29T18:13:21.956Z,15.00
2022-10-29T18:16:27.465Z,15.00
2022-10-29T18:19:30.896Z,14.90
2022-10-29T18:22:34.313Z,14.90
2022-10-29T18:25:37.749Z,14.90
2022-10-29T18:28:42.486Z,14.80
2022-10-29T18:31:46.846Z,14.70
2022-10-29T18:34:50.343Z,14.80
2022-10-29T18:37:54.637Z,14.80
2022-10-29T18:40:59.678Z,14.70
2022-10-29T18:44:04.860Z,14.80
2022-10-29T18:47:08.290Z,14.70
2022-10-29T18:50:11.635Z,14.70
2022-10-29T18:53:14.943Z,14.70
2022-10-29T18:56:19.929Z,14.60
2022-10-29T18:59:24.635Z,14.60
2022-10-29T19:02:29.140Z,14.60
2022-10-29T19:05:32.695Z,14.60
2022-10-29T19:08:36.826Z,14.70
2022-10-29T19:11:41.848Z,14.60
2022-10-29T19:14:46.518Z,14.60
2022-10-29T19:17:50.191Z,14.50
2022-10-29T19:20:55.425Z,14.50
2022-10-29T19:24:00.227Z,14.40
2022-10-29T19:27:03.502Z,14.40
2022-10-29T19:30:09.627Z,14.40
2022-10-29T19:33:12.945Z,14.40
2022-10-29T19:36:16.466Z,14.40
2022-10-29T19:39:19.862Z,14.30
2022-10-29T19:42:23.320Z,14.20
2022-10-29T19:45:30.623Z,14.20
2022-10-29T19:48:34.024Z,14.20
2022-10-29T19:51:37.443Z,14.10
2022-10-29T19:54:40.709Z,14.20
2022-10-29T19:57:44.191Z,14.10
2022-10-29T20:00:49.223Z,14.10
2022-10-29T20:03:52.600Z,14.10
2022-10-29T20:06:55.879Z,14.10
2022-10-29T20:09:59.686Z,14.10
2022-10-29T20:13:03.076Z,14.10
2022-10-29T20:16:12.246Z,14.10
2022-10-29T20:19:16.708Z,14.20
2022-10-29T20:22:19.970Z,14.10
2022-10-29T20:25:24.109Z,14.10
2022-10-29T20:28:27.604Z,14.10
2022-10-29T20:31:38.550Z,14.00
2022-10-29T20:34:44.517Z,14.10
2022-10-29T20:37:47.912Z,14.20
2022-10-29T20:40:52.736Z,14.10
2022-10-29T20:43:57.529Z,14.10
2022-10-29T20:47:02.371Z,14.10
2022-10-29T20:50:06.100Z,14.10
2022-10-29T20:56:17.721Z,14.00
2022-10-29T20:59:21.217Z,14.00
2022-10-29T21:02:26.258Z,13.90
2022-10-29T21:05:30.012Z,13.90
2022-10-29T21:08:33.518Z,13.90
2022-10-29T21:11:36.833Z,13.80
2022-10-29T21:14:40.055Z,13.70
2022-10-29T21:17:44.662Z,13.70
2022-10-29T21:20:47.953Z,13.70
2022-10-29T21:23:51.159Z,13.60
2022-10-29T21:26:54.371Z,13.70
2022-10-29T21:29:57.583Z,13.70
2022-10-29T21:33:02.473Z,13.70
2022-10-29T21:36:06.241Z,13.70
2022-10-29T21:39:09.543Z,13.60
2022-10-29T21:42:12.795Z,13.60
2022-10-29T21:45:16.130Z,13.60
2022-10-29T21:48:21.364Z,13.50
2022-10-29T21:51:24.692Z,13.50
2022-10-29T21:54:28.507Z,13.40
2022-10-29T21:57:31.995Z,13.40
2022-10-29T22:00:35.285Z,13.40
2022-10-29T22:03:41.804Z,13.40
2022-10-29T22:06:45.091Z,13.40
2022-10-29T22:09:48.801Z,13.30
2022-10-29T22:12:52.830Z,13.20
2022-10-29T22:15:56.221Z,13.10
2022-10-29T22:19:00.930Z,13.00
2022-10-29T22:22:04.368Z,12.90
2022-10-29T22:25:08.712Z,12.90
2022-10-29T22:28:12.580Z,12.80
2022-10-29T22:31:17.203Z,12.80
2022-10-29T22:34:21.869Z,12.80
2022-10-29T22:37:25.398Z,12.80
2022-10-29T22:40:28.580Z,12.70
2022-10-29T22:43:31.779Z,12.70
2022-10-29T22:46:35.144Z,12.70
2022-10-29T22:49:39.797Z,12.80
2022-10-29T22:52:43.180Z,12.80
2022-10-29T22:55:52.910Z,12.80
2022-10-29T22:58:56.666Z,12.80
2022-10-29T23:02:00.168Z,12.80
2022-10-29T23:05:05.450Z,12.80
2022-10-29T23:08:08.644Z,12.80
2022-10-29T23:11:19.322Z,12.70
2022-10-29T23:14:22.712Z,12.70
2022-10-29T23:17:25.983Z,12.70
2022-10-29T23:20:30.643Z,12.60
2022-10-29T23:23:34.754Z,12.70
2022-10-29T23:26:38.052Z,12.60
2022-10-29T23:29:41.310Z,12.60
2022-10-29T23:32:44.480Z,12.70
2022-10-29T23:35:49.364Z,12.70
2022-10-29T23:38:56.107Z,12.70
2022-10-29T23:41:59.368Z,12.60
2022-10-29T23:45:06.865Z,12.60
2022-10-29T23:48:11.588Z,12.60
2022-10-29T23:51:16.475Z,12.40
2022-10-29T23:54:19.786Z,12.40
2022-10-29T23:57:23.028Z,12.40
